createdAt,value
2019-05-09T00:03:37.316Z,174.07
2019-05-09T00:07:48.370Z,177.63
2019-05-09T00:11:58.708Z,175.70
2019-05-09T00:16:09.113Z,179.70
2019-05-09T00:20:23.807Z,174.50
2019-05-09T00:24:33.755Z,173.93
2019-05-09T00:28:45.705Z,175.77
2019-05-09T00:32:58.329Z,174.20
2019-05-09T00:37:08.673Z,173.47
2019-05-09T00:41:19.654Z,182.83
2019-05-09T00:45:47.996Z,180.67
2019-05-09T00:49:58.323Z,175.80
2019-05-09T00:54:08.673Z,175.73
2019-05-09T00:58:18.973Z,171.17
2019-05-09T01:02:29.315Z,180.57
2019-05-09T01:06:39.613Z,173.45
2019-05-09T01:10:49.928Z,176.50
2019-05-09T01:15:00.299Z,175.63
2019-05-09T01:19:13.925Z,171.70
2019-05-09T01:23:23.524Z,174.47
2019-05-09T01:27:34.071Z,178.27
2019-05-09T01:31:45.008Z,174.03
2019-05-09T01:35:55.306Z,171.87
2019-05-09T01:40:07.467Z,173.90
2019-05-09T01:44:17.911Z,173.33
2019-05-09T01:48:28.234Z,176.77
2019-05-09T01:52:38.704Z,175.97
2019-05-09T01:56:49.005Z,173.57
2019-05-09T02:01:05.834Z,173.67
2019-05-09T02:05:14.954Z,173.77
2019-05-09T02:09:25.307Z,175.77
2019-05-09T02:13:35.639Z,173.80
2019-05-09T02:18:04.319Z,186.67
2019-05-09T02:22:29.405Z,172.27
2019-05-09T02:26:39.724Z,174.63
2019-05-09T02:30:50.159Z,179.97
2019-05-09T02:35:04.766Z,175.30
2019-05-09T02:39:14.326Z,183.83
2019-05-09T02:43:24.988Z,174.00
2019-05-09T02:47:38.194Z,178.00
2019-05-09T02:51:48.735Z,174.43
2019-05-09T02:55:59.231Z,170.07
2019-05-09T03:00:11.778Z,184.60
2019-05-09T03:04:22.181Z,171.60
2019-05-09T03:08:32.515Z,169.73
2019-05-09T03:12:42.993Z,173.53
2019-05-09T03:16:53.330Z,169.10
2019-05-09T03:21:08.626Z,171.83
2019-05-09T03:25:19.087Z,170.97
2019-05-09T03:29:42.993Z,170.43
2019-05-09T03:33:53.301Z,169.43
2019-05-09T03:38:08.128Z,169.53
2019-05-09T03:42:23.067Z,173.27
2019-05-09T03:46:32.764Z,175.03
2019-05-09T03:50:43.362Z,175.53
2019-05-09T03:54:54.389Z,170.13
2019-05-09T03:59:04.765Z,172.23
2019-05-09T04:03:15.427Z,169.37
2019-05-09T04:07:27.757Z,168.77
2019-05-09T04:11:38.192Z,168.47
2019-05-09T04:15:48.705Z,176.33
2019-05-09T04:19:59.174Z,170.53
2019-05-09T04:24:09.630Z,170.23
2019-05-09T04:28:20.093Z,169.77
2019-05-09T04:32:30.632Z,174.30
2019-05-09T04:36:40.938Z,170.10
2019-05-09T04:40:58.343Z,177.83
2019-05-09T04:45:17.723Z,171.80
2019-05-09T04:49:30.066Z,173.43
2019-05-09T04:53:40.864Z,167.33
2019-05-09T04:57:52.137Z,169.07
2019-05-09T05:02:08.666Z,172.87
2019-05-09T05:06:20.778Z,169.17
2019-05-09T05:10:31.278Z,172.67
2019-05-09T05:14:41.627Z,178.83
2019-05-09T05:18:53.606Z,170.63
2019-05-09T05:23:08.070Z,175.40
2019-05-09T05:27:18.856Z,173.93
2019-05-09T05:31:29.519Z,174.37
2019-05-09T05:35:41.466Z,175.40
2019-05-09T05:39:51.829Z,173.67
2019-05-09T05:44:02.150Z,171.10
2019-05-09T05:48:14.140Z,175.90
2019-05-09T05:52:24.463Z,173.60
2019-05-09T05:56:34.806Z,171.93
2019-05-09T06:00:45.213Z,173.40
2019-05-09T06:04:57.714Z,173.57
2019-05-09T06:09:08.502Z,175.60
2019-05-09T06:13:19.881Z,175.87
2019-05-09T06:17:30.201Z,172.33
2019-05-09T06:21:40.537Z,172.47
2019-05-09T06:25:50.865Z,171.47
2019-05-09T06:30:01.305Z,179.20
2019-05-09T06:34:12.429Z,170.37
2019-05-09T06:38:23.498Z,174.30
2019-05-09T06:42:33.755Z,181.63
2019-05-09T06:46:51.449Z,175.63
2019-05-09T06:51:01.789Z,178.77
2019-05-09T06:55:12.398Z,169.97
2019-05-09T06:59:22.745Z,170.73
2019-05-09T07:03:34.838Z,176.87
2019-05-09T07:07:57.504Z,175.80
2019-05-09T07:12:08.129Z,175.67
2019-05-09T07:16:19.214Z,174.00
2019-05-09T07:20:29.625Z,180.23
2019-05-09T07:25:00.966Z,177.33
2019-05-09T07:29:08.764Z,177.13
2019-05-09T07:33:20.741Z,178.27
2019-05-09T07:37:31.265Z,176.47
2019-05-09T07:41:41.614Z,177.00
2019-05-09T07:46:10.628Z,184.00
2019-05-09T07:50:20.955Z,176.43
2019-05-09T07:54:31.391Z,181.73
2019-05-09T07:58:41.926Z,175.93
2019-05-09T08:02:52.318Z,191.97
2019-05-09T08:07:03.084Z,177.13
2019-05-09T08:11:13.486Z,177.13
2019-05-09T08:15:23.875Z,175.30
2019-05-09T08:19:34.312Z,177.50
2019-05-09T08:23:44.712Z,182.40
2019-05-09T08:27:55.045Z,180.23
2019-05-09T08:32:07.407Z,176.22
2019-05-09T08:36:19.801Z,180.07
2019-05-09T08:40:29.623Z,179.97
2019-05-09T08:44:42.081Z,180.47
2019-05-09T08:48:52.054Z,177.67
2019-05-09T08:53:02.617Z,180.33
2019-05-09T08:57:13.094Z,182.73
2019-05-09T09:01:34.583Z,182.83
2019-05-09T09:05:37.843Z,188.00
2019-05-09T09:09:48.242Z,179.80
2019-05-09T09:13:58.791Z,181.10
2019-05-09T09:18:10.264Z,185.55
2019-05-09T09:22:20.885Z,182.65
2019-05-09T09:26:31.493Z,187.57
2019-05-09T09:30:42.862Z,182.12
2019-05-09T09:34:53.277Z,182.35
2019-05-09T09:39:05.059Z,180.72
2019-05-09T09:43:17.598Z,179.63
2019-05-09T09:47:28.741Z,189.82
2019-05-09T09:51:39.758Z,181.70
2019-05-09T09:55:50.308Z,183.33
2019-05-09T10:00:02.304Z,176.70
2019-05-09T10:04:23.878Z,183.43
2019-05-09T10:08:29.326Z,181.97
2019-05-09T10:12:44.427Z,179.70
2019-05-09T10:17:10.505Z,181.67
2019-05-09T10:21:27.472Z,179.53
2019-05-09T10:25:38.283Z,186.33
2019-05-09T10:29:48.897Z,179.90
2019-05-09T10:33:59.187Z,184.18
2019-05-09T10:38:09.516Z,180.60
2019-05-09T10:42:30.623Z,187.75
2019-05-09T10:47:01.948Z,186.50
2019-05-09T10:51:10.704Z,188.57
2019-05-09T10:55:21.254Z,192.45
2019-05-09T10:59:31.638Z,183.15
2019-05-09T11:03:42.098Z,180.12
2019-05-09T11:07:53.456Z,181.02
2019-05-09T11:12:04.326Z,179.78
2019-05-09T11:16:15.153Z,178.93
2019-05-09T11:20:28.443Z,179.93
2019-05-09T11:24:45.761Z,181.30
2019-05-09T11:28:51.253Z,192.90
2019-05-09T11:33:02.235Z,182.43
2019-05-09T11:37:12.570Z,179.75
2019-05-09T11:41:22.869Z,180.32
2019-05-09T11:45:33.511Z,181.67
2019-05-09T11:49:43.857Z,177.50
2019-05-09T11:53:54.184Z,179.97
2019-05-09T11:58:05.061Z,184.18
2019-05-09T12:02:17.849Z,176.63
2019-05-09T12:06:29.165Z,181.10
2019-05-09T12:10:39.751Z,184.87
2019-05-09T12:14:50.087Z,182.60
2019-05-09T12:19:00.391Z,187.90
2019-05-09T12:23:10.905Z,187.47
2019-05-09T12:27:21.202Z,183.13
2019-05-09T12:31:32.510Z,187.97
2019-05-09T12:35:44.227Z,187.82
2019-05-09T12:39:54.561Z,185.07
2019-05-09T12:44:05.510Z,187.85
2019-05-09T12:48:17.008Z,187.90
2019-05-09T12:52:28.746Z,192.72
2019-05-09T12:56:39.393Z,187.25
2019-05-09T13:00:52.023Z,191.07
2019-05-09T13:05:04.549Z,186.12
2019-05-09T13:09:17.597Z,184.15
2019-05-09T13:13:30.181Z,188.57
2019-05-09T13:17:40.354Z,179.32
2019-05-09T13:21:50.632Z,180.45
2019-05-09T13:26:01.380Z,187.93
2019-05-09T13:30:12.976Z,185.15
2019-05-09T13:34:23.304Z,188.87
2019-05-09T13:38:34.577Z,186.57
2019-05-09T13:42:48.750Z,184.95
2019-05-09T13:46:58.522Z,180.63
2019-05-09T13:51:08.949Z,182.53
2019-05-09T13:55:19.548Z,185.83
2019-05-09T13:59:30.642Z,185.00
2019-05-09T14:03:41.601Z,184.72
2019-05-09T14:07:55.550Z,195.68
2019-05-09T14:12:09.114Z,198.13
2019-05-09T14:16:21.976Z,183.03
2019-05-09T14:20:30.675Z,189.73
2019-05-09T14:24:41.008Z,186.85
2019-05-09T14:28:52.941Z,179.50
2019-05-09T14:33:03.266Z,186.37
2019-05-09T14:37:17.813Z,185.10
2019-05-09T14:41:27.643Z,189.93
2019-05-09T14:45:38.074Z,191.03
2019-05-09T14:49:50.823Z,197.78
2019-05-09T14:54:01.472Z,186.83
2019-05-09T14:58:12.033Z,180.75
2019-05-09T15:02:22.361Z,182.17
2019-05-09T15:06:32.847Z,180.82
2019-05-09T15:10:43.048Z,183.55
2019-05-09T15:14:53.456Z,180.25
2019-05-09T15:19:05.185Z,183.50
2019-05-09T15:23:15.536Z,188.67
2019-05-09T15:27:27.696Z,182.97
2019-05-09T15:31:39.208Z,182.30
2019-05-09T15:35:49.778Z,186.95
2019-05-09T15:40:00.122Z,184.13
2019-05-09T15:44:12.408Z,184.90
2019-05-09T15:48:22.930Z,184.70
2019-05-09T15:52:33.470Z,184.37
2019-05-09T15:56:44.435Z,180.85
2019-05-09T16:01:04.216Z,181.23
2019-05-09T16:05:14.957Z,191.50
2019-05-09T16:09:28.602Z,188.12
2019-05-09T16:13:40.585Z,184.28
2019-05-09T16:17:52.585Z,186.23
2019-05-09T16:22:03.070Z,195.97
2019-05-09T16:26:15.378Z,182.23
2019-05-09T16:30:27.514Z,196.17
2019-05-09T16:34:38.666Z,185.15
2019-05-09T16:38:49.261Z,182.53
2019-05-09T16:42:59.827Z,182.45
2019-05-09T16:47:10.195Z,178.93
2019-05-09T16:51:20.520Z,183.50
2019-05-09T16:55:32.542Z,181.10
2019-05-09T16:59:42.889Z,180.40
2019-05-09T17:03:53.228Z,179.60
2019-05-09T17:08:03.579Z,181.83
2019-05-09T17:12:14.009Z,180.10
2019-05-09T17:16:24.774Z,181.43
2019-05-09T17:20:50.019Z,182.03
2019-05-09T17:25:00.378Z,177.77
2019-05-09T17:29:10.852Z,183.07
2019-05-09T17:33:22.048Z,181.23
2019-05-09T17:37:33.299Z,179.77
2019-05-09T17:41:44.366Z,180.57
2019-05-09T17:45:55.426Z,188.07
2019-05-09T17:50:07.739Z,178.43
2019-05-09T17:54:18.500Z,180.30
2019-05-09T17:58:32.987Z,179.47
2019-05-09T18:02:40.896Z,180.63
2019-05-09T18:06:51.216Z,179.20
2019-05-09T18:11:01.616Z,181.93
2019-05-09T18:15:12.417Z,177.13
2019-05-09T18:19:25.554Z,176.70
2019-05-09T18:23:35.949Z,175.57
2019-05-09T18:27:48.577Z,177.90
2019-05-09T18:32:03.217Z,175.30
2019-05-09T18:36:13.561Z,178.27
2019-05-09T18:40:28.098Z,180.25
2019-05-09T18:44:36.575Z,182.50
2019-05-09T18:48:47.667Z,182.27
2019-05-09T18:52:58.165Z,175.60
2019-05-09T18:57:08.475Z,180.43
2019-05-09T19:01:19.053Z,178.30
2019-05-09T19:05:30.047Z,181.93
2019-05-09T19:09:40.402Z,180.43
2019-05-09T19:13:52.337Z,174.43
2019-05-09T19:18:14.688Z,179.93
2019-05-09T19:22:25.033Z,175.20
2019-05-09T19:26:38.466Z,178.50
2019-05-09T19:30:48.741Z,179.73
2019-05-09T19:34:59.035Z,172.83
2019-05-09T19:39:10.850Z,173.67
2019-05-09T19:43:21.287Z,178.97
2019-05-09T19:47:31.690Z,178.73
2019-05-09T19:51:42.464Z,177.77
2019-05-09T19:55:52.778Z,175.57
2019-05-09T20:00:04.501Z,172.97
2019-05-09T20:04:14.833Z,178.23
2019-05-09T20:08:25.259Z,176.20
2019-05-09T20:12:49.008Z,175.17
2019-05-09T20:16:59.216Z,170.10
2019-05-09T20:21:09.590Z,172.40
2019-05-09T20:25:19.860Z,175.33
2019-05-09T20:29:30.529Z,173.80
2019-05-09T20:33:41.034Z,172.20
2019-05-09T20:37:51.564Z,171.47
2019-05-09T20:42:02.094Z,174.40
2019-05-09T20:46:13.097Z,179.43
2019-05-09T20:50:23.668Z,175.67
2019-05-09T20:54:34.324Z,174.63
2019-05-09T20:58:44.857Z,171.93
2019-05-09T21:02:55.477Z,173.97
2019-05-09T21:07:05.963Z,173.03
2019-05-09T21:11:16.520Z,174.23
2019-05-09T21:15:27.226Z,172.93
2019-05-09T21:19:38.007Z,175.77
2019-05-09T21:23:48.645Z,178.10
2019-05-09T21:27:59.298Z,172.13
2019-05-09T21:32:09.732Z,173.60
2019-05-09T21:36:20.064Z,172.40
2019-05-09T21:40:32.158Z,172.00
2019-05-09T21:44:42.669Z,174.90
2019-05-09T21:48:52.954Z,170.47
2019-05-09T21:53:04.655Z,171.17
2019-05-09T21:57:16.494Z,170.62
2019-05-09T22:01:27.020Z,171.10
2019-05-09T22:05:37.658Z,172.33
2019-05-09T22:09:48.133Z,174.33
2019-05-09T22:13:58.541Z,170.90
2019-05-09T22:18:08.863Z,169.00
2019-05-09T22:22:19.177Z,175.07
2019-05-09T22:26:29.369Z,173.90
2019-05-09T22:30:39.668Z,176.53
2019-05-09T22:34:50.013Z,173.10
2019-05-09T22:39:00.448Z,169.57
2019-05-09T22:43:10.947Z,174.83
2019-05-09T22:47:21.187Z,171.50
2019-05-09T22:51:31.491Z,172.70
2019-05-09T22:55:43.428Z,172.73
2019-05-09T22:59:53.899Z,168.67
2019-05-09T23:04:04.455Z,171.33
2019-05-09T23:08:15.237Z,168.97
2019-05-09T23:12:25.548Z,176.63
2019-05-09T23:16:37.670Z,171.17
2019-05-09T23:20:49.809Z,175.87
2019-05-09T23:25:00.129Z,172.63
2019-05-09T23:29:10.614Z,171.03
2019-05-09T23:33:21.663Z,168.53
2019-05-09T23:37:31.970Z,167.83
2019-05-09T23:41:42.318Z,171.43
2019-05-09T23:45:52.636Z,167.27
2019-05-09T23:50:03.476Z,166.77
2019-05-09T23:54:45.324Z,170.00
2019-05-09T23:59:03.363Z,173.10
